.
WxDataArchive / Data Records for 2007-09-04
2007-09-03 September 2007 2007-09-05

Data Records for Tuesday, 04 September 2007

Time	Temp	Chill	HIndex	Humid	Dewpt	 Wind 	HiWind	WindDir	Rain 	Barom 
-----	----	-----	------	-----	-----	------	------	-------	-----	----- 
00:00	66.1	66.1	66.1	92	63.7	0	0	---	0.00	30.010 
00:05	66.0	66.0	66.0	92	63.6	0	0	---	0.00	30.007 
00:10	66.0	66.0	66.0	92	63.6	0	0	---	0.00	30.003 
00:15	65.8	65.8	65.8	92	63.4	0	0	---	0.00	30.003 
00:20	65.8	65.8	65.8	93	63.7	0	0	---	0.00	30.002 
00:25	65.6	65.6	65.6	93	63.5	0	0	---	0.00	30.001 
00:30	65.5	65.5	65.5	93	63.4	0	0	---	0.00	30.001 
00:35	65.3	65.3	65.3	93	63.2	0	0	---	0.00	30.000 
00:40	65.3	65.3	65.3	93	63.2	0	0	---	0.00	30.000 
00:45	65.2	65.2	65.2	93	63.1	0	0	---	0.00	29.999 
00:50	65.2	65.2	65.2	93	63.1	0	0	---	0.00	29.998 
00:55	65.0	65.0	65.0	94	63.2	0	0	---	0.00	29.999 
01:00	65.0	65.0	65.0	94	63.2	0	0	---	0.00	29.999 
01:05	64.8	64.8	64.8	94	63.0	0	0	---	0.00	29.998 
01:10	64.8	64.8	64.8	94	63.0	0	0	---	0.00	29.995 
01:15	64.7	64.7	64.7	94	62.9	0	0	---	0.00	29.994 
01:20	64.5	64.5	64.5	94	62.7	0	0	---	0.00	29.994 
01:25	64.5	64.5	64.5	94	62.7	0	0	---	0.00	29.991 
01:30	64.3	64.3	64.3	94	62.5	0	0	---	0.00	29.991 
01:35	64.3	64.3	64.3	95	62.8	0	0	---	0.00	29.988 
01:40	64.2	64.2	64.2	95	62.7	0	0	---	0.00	29.986 
01:45	64.2	64.2	64.2	95	62.7	0	0	---	0.00	29.986 
01:50	64.2	64.2	64.2	95	62.7	0	0	---	0.00	29.985 
01:55	64.0	64.0	64.0	95	62.5	0	0	---	0.00	29.985 
02:00	63.9	63.9	63.9	95	62.4	0	0	---	0.00	29.985 
02:05	63.9	63.9	63.9	95	62.4	0	0	---	0.00	29.985 
02:10	63.7	63.7	63.7	95	62.2	0	0	---	0.00	29.983 
02:15	63.7	63.7	63.7	95	62.2	0	0	---	0.00	29.984 
02:20	63.5	63.5	63.5	95	62.0	0	0	---	0.00	29.985 
02:25	63.5	63.5	63.5	95	62.0	0	0	---	0.00	29.985 
02:30	63.5	63.5	63.5	96	62.3	0	0	---	0.00	29.986 
02:35	63.5	63.5	63.5	96	62.3	0	0	---	0.00	29.986 
02:40	63.4	63.4	63.4	96	62.2	0	0	---	0.00	29.987 
02:45	63.2	63.2	63.2	96	62.0	0	0	---	0.00	29.987 
02:50	63.2	63.2	63.2	96	62.0	0	0	---	0.00	29.989 
02:55	63.2	63.2	63.2	96	62.0	0	0	---	0.00	29.991 
03:00	63.1	63.1	63.1	96	61.9	0	0	---	0.00	29.993 
03:05	63.1	63.1	63.1	96	61.9	0	0	---	0.00	29.994 
03:10	63.1	63.1	63.1	96	61.9	0	0	---	0.00	29.995 
03:15	63.1	63.1	63.1	96	61.9	0	0	---	0.00	29.993 
03:20	63.1	63.1	63.1	96	61.9	0	0	---	0.00	29.994 
03:25	63.1	63.1	63.1	96	61.9	0	0	---	0.00	29.995 
03:30	62.9	62.9	62.9	96	61.7	0	0	---	0.00	29.992 
03:35	62.9	62.9	62.9	96	61.7	0	0	---	0.00	29.993 
03:40	62.7	62.7	62.7	96	61.5	0	0	---	0.00	29.993 
03:45	62.7	62.7	62.7	96	61.5	0	0	---	0.00	29.991 
03:50	62.7	62.7	62.7	96	61.5	0	0	---	0.00	29.993 
03:55	62.7	62.7	62.7	96	61.5	0	0	---	0.00	29.993 
04:00	62.6	62.6	62.6	97	61.7	0	0	---	0.00	29.992 
04:05	62.6	62.6	62.6	97	61.7	0	0	---	0.00	29.994 
04:10	62.4	62.4	62.4	97	61.5	0	0	---	0.00	29.995 
04:15	62.4	62.4	62.4	97	61.5	0	0	---	0.00	29.996 
04:20	62.3	62.3	62.3	97	61.4	0	0	---	0.00	29.996 
04:25	62.1	62.1	62.1	97	61.2	0	0	---	0.00	29.995 
04:30	62.1	62.1	62.1	97	61.2	0	0	---	0.00	29.994 
04:35	62.3	62.3	62.3	97	61.4	0	0	---	0.00	29.992 
04:40	62.3	62.3	62.3	97	61.4	0	0	---	0.00	29.990 
04:45	62.3	62.3	62.3	97	61.4	0	0	---	0.00	29.990 
04:50	62.3	62.3	62.3	97	61.4	0	0	---	0.00	29.992 
04:55	62.1	62.1	62.1	97	61.2	0	0	---	0.00	29.996 
05:00	62.0	62.0	62.0	97	61.1	0	0	---	0.00	29.996 
05:05	62.0	62.0	62.0	97	61.1	0	0	---	0.00	30.000 
05:10	61.8	61.8	61.8	97	60.9	0	0	---	0.00	30.001 
05:15	61.8	61.8	61.8	97	60.9	0	0	---	0.00	30.003 
05:20	61.8	61.8	61.8	97	60.9	0	0	---	0.00	30.002 
05:25	61.8	61.8	61.8	97	60.9	0	0	---	0.00	30.000 
05:30	61.6	61.6	61.6	97	60.7	0	0	---	0.00	29.999 
05:35	61.5	61.5	61.5	97	60.6	0	0	---	0.00	29.998 
05:40	61.5	61.5	61.5	97	60.6	0	0	---	0.00	30.001 
05:45	61.5	61.5	61.5	97	60.6	0	0	---	0.00	30.003 
05:50	61.5	61.5	61.5	97	60.6	0	0	---	0.00	30.003 
05:55	61.3	61.3	61.3	97	60.4	0	0	---	0.00	30.003 
06:00	61.3	61.3	61.3	97	60.4	0	0	---	0.00	30.002 
06:05	61.3	61.3	61.3	97	60.4	0	0	---	0.00	30.006 
06:10	61.5	61.5	61.5	97	60.6	0	0	---	0.00	30.006 
06:15	61.5	61.5	61.5	97	60.6	0	0	---	0.00	30.005 
06:20	61.5	61.5	61.5	97	60.6	0	0	---	0.00	30.005 
06:25	61.5	61.5	61.5	97	60.6	0	0	---	0.00	30.005 
06:30	61.5	61.5	61.5	97	60.6	0	0	---	0.00	30.007 
06:35	61.8	61.8	61.8	97	60.9	0	0	---	0.00	30.008 
06:40	61.8	61.8	61.8	97	60.9	0	0	---	0.00	30.007 
06:45	62.1	62.1	62.1	98	61.5	0	0	---	0.00	30.007 
06:50	62.3	62.3	62.3	98	61.7	0	0	---	0.00	30.007 
06:55	62.4	62.4	62.4	98	61.8	0	0	---	0.00	30.008 
07:00	62.7	62.7	62.7	98	62.1	0	0	---	0.00	30.009 
07:05	63.1	63.1	63.1	98	62.5	0	0	---	0.00	30.013 
07:10	63.5	63.5	63.5	98	62.9	0	0	---	0.00	30.014 
07:15	64.0	64.0	64.0	98	63.4	0	0	---	0.00	30.012 
07:20	64.5	64.5	64.5	98	63.9	0	0	---	0.00	30.011 
07:25	64.8	64.8	64.8	98	64.2	0	0	---	0.00	30.012 
07:30	65.2	65.2	65.2	98	64.6	0	0	---	0.00	30.013 
07:35	65.6	65.6	65.6	98	65.0	0	0	---	0.00	30.009 
07:40	66.0	66.0	66.0	98	65.4	0	0	---	0.00	30.008 
07:45	66.4	66.4	66.4	98	65.8	0	0	---	0.00	30.008 
07:50	66.9	66.9	66.9	98	66.3	0	0	---	0.00	30.008 
07:55	67.4	67.4	67.4	98	66.8	0	0	---	0.00	30.008 
08:00	67.9	67.9	67.9	98	67.3	0	0	---	0.00	30.007 
08:05	68.3	68.3	68.3	97	67.4	0	0	---	0.00	30.011 
08:10	68.8	68.8	68.8	97	67.9	0	0	---	0.00	30.011 
08:15	69.1	69.1	69.1	97	68.2	0	1	248	0.00	30.010 
08:20	69.6	69.6	69.6	97	68.7	0	1	248	0.00	30.008 
08:25	69.9	69.9	69.9	95	68.4	0	1	248	0.00	30.007 
08:30	70.6	70.6	70.6	92	68.2	0	1	248	0.00	30.006 
08:35	71.5	71.5	71.5	88	67.7	0	1	248	0.00	30.005 
08:40	72.3	72.3	72.3	84	67.2	0	2	248	0.00	30.004 
08:45	73.2	73.2	73.2	81	67.0	0	2	248	0.00	30.005 
08:50	73.9	73.9	73.9	78	66.6	0	1	248	0.00	30.003 
08:55	74.6	74.6	74.6	77	66.9	0	1	248	0.00	30.004 
09:00	75.3	75.3	76.6	74	66.4	0	1	248	0.00	30.003 
09:05	76.0	76.0	77.7	70	65.5	0	2	248	0.00	30.003 
09:10	76.7	76.7	78.5	68	65.3	0	2	248	0.00	30.002 
09:15	77.4	77.4	79.2	68	66.0	0	2	248	0.00	30.002 
09:20	77.9	77.9	79.8	67	66.0	0	1	248	0.00	30.002 
09:25	78.5	78.5	80.4	64	65.3	1	2	248	0.00	30.000 
09:30	78.8	78.8	80.7	63	65.1	1	2	248	0.00	30.000 
09:35	79.0	79.0	80.8	62	64.8	1	3	225	0.00	30.001 
09:40	79.2	79.2	80.7	58	63.1	1	3	225	0.00	30.000 
09:45	79.4	79.4	81.0	59	63.8	1	3	248	0.00	30.001 
09:50	79.8	79.8	81.3	57	63.2	1	4	248	0.00	30.002 
09:55	79.9	79.9	81.4	57	63.3	1	3	248	0.00	30.001 
10:00	80.5	80.5	82.1	57	63.8	0	2	248	0.00	29.996 
10:05	80.9	80.9	82.3	55	63.2	1	4	248	0.00	30.002 
10:10	80.9	80.9	82.1	54	62.7	1	4	248	0.00	30.002 
10:15	81.1	81.1	82.6	56	63.9	1	3	248	0.00	30.000 
10:20	81.4	81.4	82.5	53	62.6	1	3	248	0.00	30.000 
10:25	81.8	81.8	83.8	58	65.6	1	5	0	0.00	30.000 
10:30	82.4	82.4	84.2	56	65.1	0	2	0	0.00	29.998 
10:35	82.8	82.8	84.4	54	64.4	1	4	0	0.00	29.997 
10:40	83.0	83.0	84.1	51	63.0	1	3	270	0.00	29.997 
10:45	83.4	83.4	85.8	57	66.5	0	2	270	0.00	29.995 
10:50	83.8	83.8	85.3	52	64.3	1	2	270	0.00	29.994 
10:55	84.3	84.3	85.3	49	63.0	0	2	270	0.00	29.993 
11:00	84.3	84.3	85.3	49	63.0	1	2	270	0.00	29.994 
11:05	84.3	84.3	85.5	50	63.6	1	3	270	0.00	29.997 
11:10	84.1	84.1	85.3	50	63.4	1	2	270	0.00	29.995 
11:15	84.7	84.7	85.6	48	62.8	1	3	270	0.00	29.994 
11:20	84.5	84.5	84.9	46	61.4	1	3	315	0.00	29.992 
11:25	84.7	84.7	86.0	50	64.0	1	3	270	0.00	29.993 
11:30	84.7	84.7	85.2	46	61.6	1	3	270	0.00	29.991 
11:35	84.5	84.5	84.9	46	61.4	1	3	248	0.00	29.990 
11:40	84.3	84.3	85.3	49	63.0	1	3	315	0.00	29.987 
11:45	84.7	84.7	85.8	49	63.4	1	3	270	0.00	29.987 
11:50	84.9	84.9	85.6	47	62.4	1	2	248	0.00	29.985 
11:55	85.1	85.1	85.7	46	62.0	1	3	270	0.00	29.985 
12:00	85.5	85.5	85.7	44	61.1	1	3	270	0.00	29.983 
12:05	85.7	85.7	86.4	46	62.5	1	3	270	0.00	29.984 
12:10	85.7	85.7	86.2	45	61.9	1	4	270	0.00	29.984 
12:15	85.7	85.7	86.4	46	62.5	1	3	248	0.00	29.982 
12:20	85.7	85.7	86.4	46	62.5	1	3	248	0.00	29.981 
12:25	85.7	85.7	86.2	45	61.9	1	3	270	0.00	29.980 
12:30	85.9	85.9	86.9	47	63.3	1	3	270	0.00	29.980 
12:35	85.9	85.9	86.0	43	60.8	2	4	270	0.00	29.976 
12:40	85.9	85.9	86.4	45	62.1	1	3	248	0.00	29.976 
12:45	86.3	86.3	86.2	42	60.5	1	4	248	0.00	29.975 
12:50	86.3	86.3	87.0	45	62.4	1	4	270	0.00	29.973 
12:55	86.5	86.5	87.2	45	62.6	1	2	112	0.00	29.970 
13:00	87.0	87.0	87.4	43	61.8	1	3	270	0.00	29.969 
13:05	86.7	86.7	87.0	43	61.5	1	3	292	0.00	29.971 
13:10	86.7	86.7	86.7	42	60.8	0	1	292	0.00	29.973 
13:15	87.2	87.2	87.6	43	61.9	1	2	292	0.00	29.971 
13:20	87.4	87.4	86.9	39	59.4	1	2	292	0.00	29.972 
13:25	87.0	87.0	86.4	39	59.0	1	3	315	0.00	29.971 
13:30	87.0	87.0	86.4	39	59.0	0	2	292	0.00	29.969 
13:35	87.4	87.4	87.1	40	60.1	1	3	225	0.00	29.971 
13:40	87.6	87.6	87.1	39	59.5	1	3	248	0.00	29.969 
13:45	87.2	87.2	86.6	39	59.2	1	3	270	0.00	29.970 
13:50	87.2	87.2	86.2	37	57.7	1	3	270	0.00	29.969 
13:55	87.4	87.4	86.7	38	58.6	1	3	315	0.00	29.967 
14:00	87.4	87.4	86.4	37	57.9	1	2	315	0.00	29.969 
14:05	87.0	87.0	86.0	37	57.5	1	3	315	0.00	29.969 
14:10	87.0	87.0	86.2	38	58.3	0	3	315	0.00	29.964 
14:15	87.2	87.2	86.6	39	59.2	1	3	315	0.00	29.964 
14:20	87.6	87.6	86.7	37	58.1	1	3	270	0.00	29.962 
14:25	87.6	87.6	86.4	36	57.3	1	2	315	0.00	29.960 
14:30	88.0	88.0	87.9	40	60.6	0	2	315	0.00	29.958 
14:35	87.8	87.8	86.9	37	58.2	1	3	45	0.00	29.959 
14:40	87.6	87.6	87.4	40	60.3	0	2	315	0.00	29.959 
14:45	87.6	87.6	86.9	38	58.8	0	1	315	0.00	29.957 
14:50	87.6	87.6	86.9	38	58.8	0	3	315	0.00	29.954 
14:55	87.6	87.6	87.4	40	60.3	0	3	315	0.00	29.955 
15:00	87.6	87.6	86.9	38	58.8	1	4	315	0.00	29.954 
15:05	87.8	87.8	87.4	39	59.7	0	1	225	0.00	29.953 
15:10	87.4	87.4	86.7	38	58.6	1	3	270	0.00	29.953 
15:15	87.2	87.2	86.4	38	58.5	0	2	315	0.00	29.953 
15:20	87.4	87.4	87.1	40	60.1	1	3	315	0.00	29.952 
15:25	87.6	87.6	87.4	40	60.3	1	2	315	0.00	29.953 
15:30	87.6	87.6	87.1	39	59.5	0	3	292	0.00	29.954 
15:35	87.2	87.2	87.4	42	61.3	0	3	292	0.00	29.953 
15:40	87.2	87.2	86.6	39	59.2	1	4	0	0.00	29.953 
15:45	87.4	87.4	87.1	40	60.1	1	2	270	0.00	29.952 
15:50	87.4	87.4	87.4	41	60.8	0	1	248	0.00	29.952 
15:55	87.2	87.2	86.9	40	59.9	0	2	315	0.00	29.953 
16:00	87.2	87.2	86.0	36	57.0	1	2	315	0.00	29.953 
16:05	87.2	87.2	86.2	37	57.7	1	2	315	0.00	29.953 
16:10	87.0	87.0	86.6	40	59.7	1	4	248	0.00	29.952 
16:15	86.7	86.7	86.0	39	58.7	0	2	248	0.00	29.949 
16:20	86.5	86.5	85.4	37	57.1	0	1	292	0.00	29.949 
16:25	86.5	86.5	85.4	37	57.1	0	1	315	0.00	29.950 
16:30	86.5	86.5	85.8	39	58.6	1	3	315	0.00	29.950 
16:35	86.3	86.3	85.2	37	56.9	0	1	338	0.00	29.949 
16:40	86.3	86.3	85.8	40	59.1	0	1	315	0.00	29.944 
16:45	86.3	86.3	85.8	40	59.1	1	3	315	0.00	29.946 
16:50	86.1	86.1	85.4	39	58.2	1	2	270	0.00	29.949 
16:55	86.1	86.1	85.6	40	58.9	0	1	315	0.00	29.947 
17:00	85.9	85.9	85.5	41	59.4	0	2	315	0.00	29.943 
17:05	85.9	85.9	85.3	40	58.7	0	2	315	0.00	29.946 
17:10	85.7	85.7	84.7	38	57.1	0	2	292	0.00	29.946 
17:15	85.5	85.5	84.9	40	58.4	0	2	315	0.00	29.945 
17:20	85.5	85.5	84.9	40	58.4	0	1	315	0.00	29.944 
17:25	85.5	85.5	85.5	43	60.4	0	1	315	0.00	29.942 
17:30	85.3	85.3	84.7	40	58.2	0	2	315	0.00	29.942 
17:35	85.1	85.1	84.6	41	58.7	0	1	315	0.00	29.942 
17:40	84.9	84.9	84.8	43	59.9	0	1	315	0.00	29.942 
17:45	84.7	84.7	84.2	41	58.4	0	1	315	0.00	29.943 
17:50	84.7	84.7	84.4	42	59.0	0	1	315	0.00	29.943 
17:55	84.7	84.7	84.6	43	59.7	0	0	---	0.00	29.942 
18:00	84.3	84.3	83.9	42	58.7	0	1	315	0.00	29.943 
18:05	84.1	84.1	84.1	44	59.8	0	0	---	0.00	29.941 
18:10	84.0	84.0	83.8	43	59.1	0	1	315	0.00	29.942 
18:15	83.8	83.8	83.9	45	60.2	0	0	---	0.00	29.939 
18:20	83.4	83.4	83.3	44	59.2	0	0	---	0.00	29.941 
18:25	83.2	83.2	83.4	46	60.2	0	0	---	0.00	29.939 
18:30	83.0	83.0	83.4	47	60.7	0	0	---	0.00	29.938 
18:35	82.4	82.4	82.9	48	60.7	0	0	---	0.00	29.937 
18:40	82.0	82.0	82.6	49	60.9	0	0	---	0.00	29.937 
18:45	81.4	81.4	82.1	50	60.9	0	0	---	0.00	29.936 
18:50	80.9	80.9	81.9	52	61.6	0	0	---	0.00	29.937 
18:55	80.5	80.5	81.6	53	61.8	0	0	---	0.00	29.936 
19:00	79.9	79.9	81.2	55	62.3	0	0	---	0.00	29.938 
19:05	79.4	79.4	80.8	56	62.3	0	0	---	0.00	29.934 
19:10	78.6	78.6	80.1	58	62.6	0	0	---	0.00	29.938 
19:15	78.1	78.1	79.7	59	62.6	0	0	---	0.00	29.937 
19:20	77.6	77.6	79.3	61	63.1	0	0	---	0.00	29.937 
19:25	76.8	76.8	78.6	62	62.8	0	0	---	0.00	29.940 
19:30	76.5	76.5	78.3	64	63.4	0	0	---	0.00	29.940 
19:35	76.0	76.0	77.9	65	63.4	0	0	---	0.00	29.941 
19:40	75.4	75.4	77.3	66	63.2	0	0	---	0.00	29.943 
19:45	74.9	74.9	74.9	67	63.2	0	0	---	0.00	29.943 
19:50	74.4	74.4	74.4	68	63.1	0	0	---	0.00	29.943 
19:55	74.0	74.0	74.0	69	63.2	0	0	---	0.00	29.944 
20:00	73.7	73.7	73.7	70	63.3	0	0	---	0.00	29.944 
20:05	73.3	73.3	73.3	71	63.3	0	0	---	0.00	29.939 
20:10	73.0	73.0	73.0	72	63.4	0	0	---	0.00	29.940 
20:15	72.5	72.5	72.5	73	63.3	0	0	---	0.00	29.941 
20:20	72.1	72.1	72.1	73	63.0	0	0	---	0.00	29.943 
20:25	71.8	71.8	71.8	74	63.1	0	0	---	0.00	29.943 
20:30	71.5	71.5	71.5	75	63.1	0	0	---	0.00	29.943 
20:35	71.3	71.3	71.3	76	63.3	0	0	---	0.00	29.944 
20:40	70.9	70.9	70.9	77	63.3	0	0	---	0.00	29.944 
20:45	70.8	70.8	70.8	78	63.6	0	0	---	0.00	29.945 
20:50	70.4	70.4	70.4	78	63.2	0	0	---	0.00	29.945 
20:55	70.3	70.3	70.3	79	63.5	0	0	---	0.00	29.946 
21:00	70.1	70.1	70.1	80	63.6	0	0	---	0.00	29.946 
21:05	69.9	69.9	69.9	81	63.8	0	0	---	0.00	29.943 
21:10	69.6	69.6	69.6	81	63.5	0	0	---	0.00	29.942 
21:15	69.4	69.4	69.4	82	63.7	0	0	---	0.00	29.941 
21:20	69.3	69.3	69.3	83	63.9	0	0	---	0.00	29.941 
21:25	69.1	69.1	69.1	84	64.1	0	0	---	0.00	29.940 
21:30	68.9	68.9	68.9	84	63.9	0	0	---	0.00	29.942 
21:35	68.8	68.8	68.8	85	64.1	0	0	---	0.00	29.944 
21:40	68.6	68.6	68.6	85	63.9	0	0	---	0.00	29.945 
21:45	68.4	68.4	68.4	86	64.0	0	0	---	0.00	29.947 
21:50	68.3	68.3	68.3	86	63.9	0	0	---	0.00	29.945 
21:55	68.1	68.1	68.1	87	64.1	0	0	---	0.00	29.943 
22:00	67.8	67.8	67.8	87	63.8	0	0	---	0.00	29.945 
22:05	67.6	67.6	67.6	87	63.6	0	0	---	0.00	29.942 
22:10	67.6	67.6	67.6	88	63.9	0	0	---	0.00	29.945 
22:15	67.4	67.4	67.4	88	63.7	0	0	---	0.00	29.944 
22:20	67.3	67.3	67.3	88	63.6	0	0	---	0.00	29.944 
22:25	67.1	67.1	67.1	88	63.4	0	0	---	0.00	29.944 
22:30	66.9	66.9	66.9	89	63.5	0	0	---	0.00	29.946 
22:35	66.8	66.8	66.8	89	63.4	0	0	---	0.00	29.947 
22:40	66.4	66.4	66.4	89	63.1	0	0	---	0.00	29.947 
22:45	66.4	66.4	66.4	90	63.4	0	0	---	0.00	29.946 
22:50	66.3	66.3	66.3	90	63.3	0	0	---	0.00	29.949 
22:55	66.3	66.3	66.3	91	63.6	0	0	---	0.00	29.951 
23:00	66.1	66.1	66.1	91	63.4	0	0	---	0.00	29.952 
23:05	66.0	66.0	66.0	91	63.3	0	0	---	0.00	29.951 
23:10	65.8	65.8	65.8	91	63.1	0	0	---	0.00	29.951 
23:15	65.8	65.8	65.8	92	63.4	0	0	---	0.00	29.950 
23:20	65.6	65.6	65.6	92	63.2	0	0	---	0.00	29.949 
23:25	65.6	65.6	65.6	92	63.2	0	0	---	0.00	29.948 
23:30	65.5	65.5	65.5	92	63.1	0	0	---	0.00	29.947 
23:35	65.3	65.3	65.3	92	62.9	0	0	---	0.00	29.949 
23:40	65.2	65.2	65.2	92	62.8	0	0	---	0.00	29.949 
23:45	65.2	65.2	65.2	93	63.1	0	0	---	0.00	29.947 
23:50	65.0	65.0	65.0	93	62.9	0	0	---	0.00	29.949 
23:55	65.0	65.0	65.0	93	62.9	0	0	---	0.00	29.947 

CoCoRaHS
IN-AL-39
A2 Web Hosting
Creative Commons License
GoDaddy
Look for:

loaded 2017-12-13 02:43:12 • last modified 2010-11-18 10:43:29
Privacy PolicyDisclaimer
• wx.awcolley.com is powered by PmWiki v.2002016 •
• all content (unless otherwise noted) © 2017 A W Colley